sensor_id;sensor_type;location;lat;lon;timestamp;P1;durP1;ratioP1;P2;durP2;ratioP2
59115;SDS011;53564;51.930;4.640;2022-09-09T00:02:00;8.00;;;2.83;;
59115;SDS011;53564;51.930;4.640;2022-09-09T00:04:31;11.63;;;3.33;;
59115;SDS011;53564;51.930;4.640;2022-09-09T00:09:35;7.63;;;2.70;;
59115;SDS011;53564;51.930;4.640;2022-09-09T00:12:12;7.35;;;2.53;;
59115;SDS011;53564;51.930;4.640;2022-09-09T00:17:26;7.65;;;2.30;;
59115;SDS011;53564;51.930;4.640;2022-09-09T00:20:14;11.73;;;3.35;;
59115;SDS011;53564;51.930;4.640;2022-09-09T00:23:28;10.75;;;3.10;;
59115;SDS011;53564;51.930;4.640;2022-09-09T00:28:55;8.63;;;2.80;;
59115;SDS011;53564;51.930;4.640;2022-09-09T00:31:29;7.95;;;2.60;;
59115;SDS011;53564;51.930;4.640;2022-09-09T00:33:57;9.85;;;3.10;;
59115;SDS011;53564;51.930;4.640;2022-09-09T00:36:27;7.53;;;2.67;;
59115;SDS011;53564;51.930;4.640;2022-09-09T00:38:56;9.07;;;2.70;;
59115;SDS011;53564;51.930;4.640;2022-09-09T00:41:29;8.45;;;2.67;;
59115;SDS011;53564;51.930;4.640;2022-09-09T00:44:06;7.85;;;2.78;;
59115;SDS011;53564;51.930;4.640;2022-09-09T00:55:39;10.10;;;2.80;;
59115;SDS011;53564;51.930;4.640;2022-09-09T00:58:13;7.13;;;2.75;;
59115;SDS011;53564;51.930;4.640;2022-09-09T01:01:12;7.95;;;2.85;;
59115;SDS011;53564;51.930;4.640;2022-09-09T01:03:42;11.30;;;3.30;;
59115;SDS011;53564;51.930;4.640;2022-09-09T01:09:02;10.32;;;2.88;;
59115;SDS011;53564;51.930;4.640;2022-09-09T01:11:42;14.13;;;3.55;;
59115;SDS011;53564;51.930;4.640;2022-09-09T01:16:45;7.82;;;2.40;;
59115;SDS011;53564;51.930;4.640;2022-09-09T01:19:14;8.23;;;2.70;;
59115;SDS011;53564;51.930;4.640;2022-09-09T01:21:58;8.05;;;2.70;;
59115;SDS011;53564;51.930;4.640;2022-09-09T01:27:32;10.02;;;3.00;;
59115;SDS011;53564;51.930;4.640;2022-09-09T01:29:59;8.43;;;2.53;;
59115;SDS011;53564;51.930;4.640;2022-09-09T01:35:12;9.20;;;2.45;;
59115;SDS011;53564;51.930;4.640;2022-09-09T01:37:57;7.53;;;2.40;;
59115;SDS011;53564;51.930;4.640;2022-09-09T01:40:24;7.53;;;2.60;;
59115;SDS011;53564;51.930;4.640;2022-09-09T01:42:50;8.63;;;2.63;;
59115;SDS011;53564;51.930;4.640;2022-09-09T01:45:16;6.78;;;2.35;;
59115;SDS011;53564;51.930;4.640;2022-09-09T01:47:41;8.88;;;2.25;;
59115;SDS011;53564;51.930;4.640;2022-09-09T01:50:07;8.70;;;2.65;;
59115;SDS011;53564;51.930;4.640;2022-09-09T01:52:36;8.68;;;2.60;;
59115;SDS011;53564;51.930;4.640;2022-09-09T01:55:02;6.18;;;2.65;;
59115;SDS011;53564;51.930;4.640;2022-09-09T01:57:29;11.40;;;2.67;;
59115;SDS011;53564;51.930;4.640;2022-09-09T02:00:07;9.18;;;2.65;;
59115;SDS011;53564;51.930;4.640;2022-09-09T02:02:50;9.70;;;2.78;;
59115;SDS011;53564;51.930;4.640;2022-09-09T02:05:35;10.90;;;3.20;;
59115;SDS011;53564;51.930;4.640;2022-09-09T02:08:15;8.77;;;3.03;;
59115;SDS011;53564;51.930;4.640;2022-09-09T02:10:56;9.45;;;2.83;;
59115;SDS011;53564;51.930;4.640;2022-09-09T02:13:26;10.00;;;2.50;;
59115;SDS011;53564;51.930;4.640;2022-09-09T02:19:14;9.80;;;2.90;;
59115;SDS011;53564;51.930;4.640;2022-09-09T02:21:17;8.52;;;2.67;;
59115;SDS011;53564;51.930;4.640;2022-09-09T02:23:43;8.70;;;2.85;;
59115;SDS011;53564;51.930;4.640;2022-09-09T02:26:12;10.60;;;3.05;;
59115;SDS011;53564;51.930;4.640;2022-09-09T02:28:44;7.93;;;2.55;;
59115;SDS011;53564;51.930;4.640;2022-09-09T02:31:10;11.93;;;3.22;;
59115;SDS011;53564;51.930;4.640;2022-09-09T02:33:37;9.35;;;2.50;;
59115;SDS011;53564;51.930;4.640;2022-09-09T02:36:08;8.35;;;2.42;;
59115;SDS011;53564;51.930;4.640;2022-09-09T02:38:36;9.40;;;2.50;;
59115;SDS011;53564;51.930;4.640;2022-09-09T02:41:07;11.57;;;3.42;;
59115;SDS011;53564;51.930;4.640;2022-09-09T02:43:33;8.88;;;2.60;;
59115;SDS011;53564;51.930;4.640;2022-09-09T02:46:14;8.95;;;2.55;;
59115;SDS011;53564;51.930;4.640;2022-09-09T02:56:53;6.63;;;2.30;;
59115;SDS011;53564;51.930;4.640;2022-09-09T02:59:21;8.35;;;2.72;;
59115;SDS011;53564;51.930;4.640;2022-09-09T03:01:47;9.15;;;2.70;;
59115;SDS011;53564;51.930;4.640;2022-09-09T03:04:13;9.90;;;2.90;;
59115;SDS011;53564;51.930;4.640;2022-09-09T03:06:38;7.05;;;2.40;;
59115;SDS011;53564;51.930;4.640;2022-09-09T03:09:03;7.80;;;2.40;;
59115;SDS011;53564;51.930;4.640;2022-09-09T03:11:29;10.48;;;2.80;;
59115;SDS011;53564;51.930;4.640;2022-09-09T03:13:54;9.25;;;2.72;;
59115;SDS011;53564;51.930;4.640;2022-09-09T03:16:21;7.28;;;2.38;;
59115;SDS011;53564;51.930;4.640;2022-09-09T03:18:49;11.38;;;2.75;;
59115;SDS011;53564;51.930;4.640;2022-09-09T03:21:14;7.10;;;2.30;;
59115;SDS011;53564;51.930;4.640;2022-09-09T03:23:40;5.88;;;2.10;;
59115;SDS011;53564;51.930;4.640;2022-09-09T03:26:06;7.35;;;2.28;;
59115;SDS011;53564;51.930;4.640;2022-09-09T03:28:31;9.65;;;2.58;;
59115;SDS011;53564;51.930;4.640;2022-09-09T03:31:00;10.85;;;2.70;;
59115;SDS011;53564;51.930;4.640;2022-09-09T03:33:27;7.85;;;2.63;;
59115;SDS011;53564;51.930;4.640;2022-09-09T03:35:53;10.40;;;2.80;;
59115;SDS011;53564;51.930;4.640;2022-09-09T03:38:21;10.45;;;2.92;;
59115;SDS011;53564;51.930;4.640;2022-09-09T03:40:51;7.68;;;2.50;;
59115;SDS011;53564;51.930;4.640;2022-09-09T03:43:22;8.50;;;2.45;;
59115;SDS011;53564;51.930;4.640;2022-09-09T03:45:48;7.25;;;2.40;;
59115;SDS011;53564;51.930;4.640;2022-09-09T03:48:14;6.50;;;2.15;;
59115;SDS011;53564;51.930;4.640;2022-09-09T03:50:43;5.63;;;2.20;;
59115;SDS011;53564;51.930;4.640;2022-09-09T03:53:13;8.68;;;2.75;;
59115;SDS011;53564;51.930;4.640;2022-09-09T03:55:43;10.60;;;2.70;;
59115;SDS011;53564;51.930;4.640;2022-09-09T03:58:09;8.00;;;2.45;;
59115;SDS011;53564;51.930;4.640;2022-09-09T04:00:35;7.05;;;2.20;;
59115;SDS011;53564;51.930;4.640;2022-09-09T04:03:01;9.75;;;2.30;;
59115;SDS011;53564;51.930;4.640;2022-09-09T04:05:26;6.88;;;2.40;;
59115;SDS011;53564;51.930;4.640;2022-09-09T04:07:52;8.50;;;2.40;;
59115;SDS011;53564;51.930;4.640;2022-09-09T04:10:17;7.65;;;2.13;;
59115;SDS011;53564;51.930;4.640;2022-09-09T04:12:42;8.57;;;2.47;;
59115;SDS011;53564;51.930;4.640;2022-09-09T04:15:08;8.27;;;2.30;;
59115;SDS011;53564;51.930;4.640;2022-09-09T04:17:34;7.95;;;2.20;;
59115;SDS011;53564;51.930;4.640;2022-09-09T04:20:01;8.20;;;2.22;;
59115;SDS011;53564;51.930;4.640;2022-09-09T04:22:26;10.55;;;2.70;;
59115;SDS011;53564;51.930;4.640;2022-09-09T04:24:52;8.48;;;2.28;;
59115;SDS011;53564;51.930;4.640;2022-09-09T04:27:17;10.95;;;2.50;;
59115;SDS011;53564;51.930;4.640;2022-09-09T04:29:42;7.22;;;2.30;;
59115;SDS011;53564;51.930;4.640;2022-09-09T04:32:07;8.88;;;2.50;;
59115;SDS011;53564;51.930;4.640;2022-09-09T04:34:33;7.45;;;2.40;;
59115;SDS011;53564;51.930;4.640;2022-09-09T04:36:58;7.13;;;2.20;;
59115;SDS011;53564;51.930;4.640;2022-09-09T04:39:25;13.45;;;2.58;;
59115;SDS011;53564;51.930;4.640;2022-09-09T04:41:51;7.97;;;2.40;;
59115;SDS011;53564;51.930;4.640;2022-09-09T04:44:16;7.55;;;2.28;;
59115;SDS011;53564;51.930;4.640;2022-09-09T04:46:41;9.90;;;2.70;;
59115;SDS011;53564;51.930;4.640;2022-09-09T04:49:06;8.40;;;2.42;;
59115;SDS011;53564;51.930;4.640;2022-09-09T04:51:32;11.07;;;3.10;;
59115;SDS011;53564;51.930;4.640;2022-09-09T04:53:57;6.82;;;2.45;;
59115;SDS011;53564;51.930;4.640;2022-09-09T04:56:23;9.02;;;2.25;;
59115;SDS011;53564;51.930;4.640;2022-09-09T04:58:48;7.85;;;2.42;;
59115;SDS011;53564;51.930;4.640;2022-09-09T05:01:17;10.80;;;2.58;;
59115;SDS011;53564;51.930;4.640;2022-09-09T05:03:44;10.40;;;2.50;;
59115;SDS011;53564;51.930;4.640;2022-09-09T05:06:11;9.77;;;2.63;;
59115;SDS011;53564;51.930;4.640;2022-09-09T05:08:39;7.40;;;2.20;;
59115;SDS011;53564;51.930;4.640;2022-09-09T05:11:15;7.50;;;2.28;;
59115;SDS011;53564;51.930;4.640;2022-09-09T05:13:42;8.50;;;2.28;;
59115;SDS011;53564;51.930;4.640;2022-09-09T05:16:08;9.23;;;2.55;;
59115;SDS011;53564;51.930;4.640;2022-09-09T05:18:36;8.98;;;2.45;;
59115;SDS011;53564;51.930;4.640;2022-09-09T05:21:01;9.02;;;2.20;;
59115;SDS011;53564;51.930;4.640;2022-09-09T05:23:27;12.55;;;2.40;;
59115;SDS011;53564;51.930;4.640;2022-09-09T05:25:56;8.57;;;2.42;;
59115;SDS011;53564;51.930;4.640;2022-09-09T05:28:23;9.73;;;2.45;;
59115;SDS011;53564;51.930;4.640;2022-09-09T05:30:58;11.20;;;2.65;;
59115;SDS011;53564;51.930;4.640;2022-09-09T05:33:25;7.63;;;2.30;;
59115;SDS011;53564;51.930;4.640;2022-09-09T05:36:02;9.00;;;2.25;;
59115;SDS011;53564;51.930;4.640;2022-09-09T05:38:35;7.22;;;2.30;;
59115;SDS011;53564;51.930;4.640;2022-09-09T05:41:01;8.77;;;2.92;;
59115;SDS011;53564;51.930;4.640;2022-09-09T05:43:28;9.35;;;2.50;;
59115;SDS011;53564;51.930;4.640;2022-09-09T05:48:29;6.75;;;2.50;;
59115;SDS011;53564;51.930;4.640;2022-09-09T05:50:55;9.38;;;2.40;;
59115;SDS011;53564;51.930;4.640;2022-09-09T05:53:21;8.45;;;2.25;;
59115;SDS011;53564;51.930;4.640;2022-09-09T05:55:46;8.55;;;2.45;;
59115;SDS011;53564;51.930;4.640;2022-09-09T05:58:13;10.70;;;2.70;;
59115;SDS011;53564;51.930;4.640;2022-09-09T06:00:39;9.00;;;2.53;;
59115;SDS011;53564;51.930;4.640;2022-09-09T06:03:04;8.93;;;2.40;;
59115;SDS011;53564;51.930;4.640;2022-09-09T06:05:30;9.13;;;2.20;;
59115;SDS011;53564;51.930;4.640;2022-09-09T06:07:55;7.68;;;2.10;;
59115;SDS011;53564;51.930;4.640;2022-09-09T06:10:20;10.13;;;2.75;;
59115;SDS011;53564;51.930;4.640;2022-09-09T06:12:46;8.18;;;2.17;;
59115;SDS011;53564;51.930;4.640;2022-09-09T06:15:12;9.73;;;2.50;;
59115;SDS011;53564;51.930;4.640;2022-09-09T06:17:37;11.38;;;2.65;;
59115;SDS011;53564;51.930;4.640;2022-09-09T06:20:03;8.45;;;2.40;;
59115;SDS011;53564;51.930;4.640;2022-09-09T06:22:29;9.88;;;2.85;;
59115;SDS011;53564;51.930;4.640;2022-09-09T06:24:55;8.38;;;2.25;;
59115;SDS011;53564;51.930;4.640;2022-09-09T06:27:20;11.50;;;2.33;;
59115;SDS011;53564;51.930;4.640;2022-09-09T06:29:45;10.48;;;2.40;;
59115;SDS011;53564;51.930;4.640;2022-09-09T06:32:11;7.00;;;2.20;;
59115;SDS011;53564;51.930;4.640;2022-09-09T06:34:36;12.45;;;2.60;;
59115;SDS011;53564;51.930;4.640;2022-09-09T06:37:01;11.15;;;3.10;;
59115;SDS011;53564;51.930;4.640;2022-09-09T06:39:27;10.63;;;2.65;;
59115;SDS011;53564;51.930;4.640;2022-09-09T06:41:52;11.07;;;2.40;;
59115;SDS011;53564;51.930;4.640;2022-09-09T06:44:18;12.48;;;2.95;;
59115;SDS011;53564;51.930;4.640;2022-09-09T06:46:44;10.40;;;3.10;;
59115;SDS011;53564;51.930;4.640;2022-09-09T06:49:13;11.52;;;2.88;;
59115;SDS011;53564;51.930;4.640;2022-09-09T06:51:38;12.23;;;2.85;;
59115;SDS011;53564;51.930;4.640;2022-09-09T06:54:11;15.38;;;2.92;;
59115;SDS011;53564;51.930;4.640;2022-09-09T06:56:38;10.85;;;2.75;;
59115;SDS011;53564;51.930;4.640;2022-09-09T06:59:08;12.98;;;3.38;;
59115;SDS011;53564;51.930;4.640;2022-09-09T07:01:36;11.30;;;2.70;;
59115;SDS011;53564;51.930;4.640;2022-09-09T07:04:03;10.65;;;2.95;;
59115;SDS011;53564;51.930;4.640;2022-09-09T07:06:32;9.45;;;2.60;;
59115;SDS011;53564;51.930;4.640;2022-09-09T07:09:01;8.50;;;2.70;;
59115;SDS011;53564;51.930;4.640;2022-09-09T07:11:30;12.32;;;3.10;;
59115;SDS011;53564;51.930;4.640;2022-09-09T07:13:57;11.73;;;3.25;;
59115;SDS011;53564;51.930;4.640;2022-09-09T07:16:23;10.88;;;3.25;;
59115;SDS011;53564;51.930;4.640;2022-09-09T07:18:50;9.57;;;3.40;;
59115;SDS011;53564;51.930;4.640;2022-09-09T07:21:27;8.93;;;2.85;;
59115;SDS011;53564;51.930;4.640;2022-09-09T07:23:54;12.60;;;3.33;;
59115;SDS011;53564;51.930;4.640;2022-09-09T07:26:21;13.43;;;3.88;;
59115;SDS011;53564;51.930;4.640;2022-09-09T07:28:50;9.52;;;3.35;;
59115;SDS011;53564;51.930;4.640;2022-09-09T07:33:43;9.93;;;3.20;;
59115;SDS011;53564;51.930;4.640;2022-09-09T07:36:12;13.27;;;3.55;;
59115;SDS011;53564;51.930;4.640;2022-09-09T07:38:46;12.10;;;3.30;;
59115;SDS011;53564;51.930;4.640;2022-09-09T07:41:14;11.30;;;3.30;;
59115;SDS011;53564;51.930;4.640;2022-09-09T07:43:42;12.93;;;3.55;;
59115;SDS011;53564;51.930;4.640;2022-09-09T07:46:09;12.32;;;3.22;;
59115;SDS011;53564;51.930;4.640;2022-09-09T07:48:36;13.40;;;3.38;;
59115;SDS011;53564;51.930;4.640;2022-09-09T07:51:03;12.07;;;3.40;;
59115;SDS011;53564;51.930;4.640;2022-09-09T07:53:31;10.38;;;3.40;;
59115;SDS011;53564;51.930;4.640;2022-09-09T07:56:01;10.32;;;3.17;;
59115;SDS011;53564;51.930;4.640;2022-09-09T07:58:28;16.35;;;3.97;;
59115;SDS011;53564;51.930;4.640;2022-09-09T08:00:53;12.23;;;3.45;;
59115;SDS011;53564;51.930;4.640;2022-09-09T08:03:19;15.48;;;4.07;;
59115;SDS011;53564;51.930;4.640;2022-09-09T08:05:46;10.07;;;3.42;;
59115;SDS011;53564;51.930;4.640;2022-09-09T08:08:12;14.25;;;3.83;;
59115;SDS011;53564;51.930;4.640;2022-09-09T08:10:37;9.32;;;3.30;;
59115;SDS011;53564;51.930;4.640;2022-09-09T08:13:02;10.77;;;3.10;;
59115;SDS011;53564;51.930;4.640;2022-09-09T08:15:28;12.68;;;3.50;;
59115;SDS011;53564;51.930;4.640;2022-09-09T08:17:55;16.02;;;3.78;;
59115;SDS011;53564;51.930;4.640;2022-09-09T08:20:21;12.02;;;3.10;;
59115;SDS011;53564;51.930;4.640;2022-09-09T08:22:48;10.77;;;3.00;;
59115;SDS011;53564;51.930;4.640;2022-09-09T08:25:14;11.30;;;3.90;;
59115;SDS011;53564;51.930;4.640;2022-09-09T08:27:40;13.85;;;4.47;;
59115;SDS011;53564;51.930;4.640;2022-09-09T08:30:05;10.38;;;3.22;;
59115;SDS011;53564;51.930;4.640;2022-09-09T08:32:31;11.38;;;3.40;;
59115;SDS011;53564;51.930;4.640;2022-09-09T08:34:56;8.48;;;2.50;;
59115;SDS011;53564;51.930;4.640;2022-09-09T08:37:22;10.93;;;3.05;;
59115;SDS011;53564;51.930;4.640;2022-09-09T08:39:47;11.85;;;3.08;;
59115;SDS011;53564;51.930;4.640;2022-09-09T08:42:27;13.73;;;3.42;;
59115;SDS011;53564;51.930;4.640;2022-09-09T08:45:02;12.55;;;2.90;;
59115;SDS011;53564;51.930;4.640;2022-09-09T08:50:26;11.18;;;3.00;;
59115;SDS011;53564;51.930;4.640;2022-09-09T08:53:04;11.90;;;3.65;;
59115;SDS011;53564;51.930;4.640;2022-09-09T08:55:37;14.27;;;3.78;;
59115;SDS011;53564;51.930;4.640;2022-09-09T08:58:14;11.98;;;3.45;;
59115;SDS011;53564;51.930;4.640;2022-09-09T09:00:53;10.75;;;2.85;;
59115;SDS011;53564;51.930;4.640;2022-09-09T09:03:28;10.77;;;3.05;;
59115;SDS011;53564;51.930;4.640;2022-09-09T09:08:48;13.45;;;3.20;;
59115;SDS011;53564;51.930;4.640;2022-09-09T09:11:21;9.23;;;2.80;;
59115;SDS011;53564;51.930;4.640;2022-09-09T09:19:13;11.80;;;3.20;;
59115;SDS011;53564;51.930;4.640;2022-09-09T09:21:54;9.07;;;2.67;;
59115;SDS011;53564;51.930;4.640;2022-09-09T09:24:34;12.57;;;3.22;;
59115;SDS011;53564;51.930;4.640;2022-09-09T09:27:09;10.52;;;3.17;;
59115;SDS011;53564;51.930;4.640;2022-09-09T09:29:38;9.75;;;2.90;;
59115;SDS011;53564;51.930;4.640;2022-09-09T09:32:05;10.13;;;3.00;;
59115;SDS011;53564;51.930;4.640;2022-09-09T09:34:34;9.68;;;2.90;;
59115;SDS011;53564;51.930;4.640;2022-09-09T09:37:00;9.73;;;2.67;;
59115;SDS011;53564;51.930;4.640;2022-09-09T09:39:33;10.88;;;2.67;;
59115;SDS011;53564;51.930;4.640;2022-09-09T09:42:10;8.43;;;2.75;;
59115;SDS011;53564;51.930;4.640;2022-09-09T09:44:39;11.23;;;2.92;;
59115;SDS011;53564;51.930;4.640;2022-09-09T09:47:10;8.63;;;2.70;;
59115;SDS011;53564;51.930;4.640;2022-09-09T09:49:36;9.73;;;2.92;;
59115;SDS011;53564;51.930;4.640;2022-09-09T09:52:02;9.55;;;2.67;;
59115;SDS011;53564;51.930;4.640;2022-09-09T09:54:30;8.63;;;2.83;;
59115;SDS011;53564;51.930;4.640;2022-09-09T09:57:09;9.88;;;3.10;;
59115;SDS011;53564;51.930;4.640;2022-09-09T09:59:36;12.13;;;2.90;;
59115;SDS011;53564;51.930;4.640;2022-09-09T10:02:21;9.60;;;2.85;;
59115;SDS011;53564;51.930;4.640;2022-09-09T10:08:01;11.73;;;3.35;;
59115;SDS011;53564;51.930;4.640;2022-09-09T10:13:10;7.80;;;2.75;;
59115;SDS011;53564;51.930;4.640;2022-09-09T10:21:20;10.90;;;2.83;;
59115;SDS011;53564;51.930;4.640;2022-09-09T10:56:07;10.20;;;3.10;;
59115;SDS011;53564;51.930;4.640;2022-09-09T10:58:44;14.02;;;3.08;;
59115;SDS011;53564;51.930;4.640;2022-09-09T11:01:23;10.68;;;3.33;;
59115;SDS011;53564;51.930;4.640;2022-09-09T11:03:57;9.05;;;3.33;;
59115;SDS011;53564;51.930;4.640;2022-09-09T11:06:38;10.07;;;3.00;;
59115;SDS011;53564;51.930;4.640;2022-09-09T11:09:08;10.88;;;2.85;;
59115;SDS011;53564;51.930;4.640;2022-09-09T11:11:43;9.48;;;2.75;;
59115;SDS011;53564;51.930;4.640;2022-09-09T11:14:31;7.75;;;2.67;;
59115;SDS011;53564;51.930;4.640;2022-09-09T11:20:05;8.35;;;2.65;;
59115;SDS011;53564;51.930;4.640;2022-09-09T11:22:36;9.30;;;2.72;;
59115;SDS011;53564;51.930;4.640;2022-09-09T11:39:30;11.93;;;3.42;;
59115;SDS011;53564;51.930;4.640;2022-09-09T11:44:38;10.93;;;3.20;;
59115;SDS011;53564;51.930;4.640;2022-09-09T11:47:14;10.70;;;3.83;;
59115;SDS011;53564;51.930;4.640;2022-09-09T11:49:54;13.02;;;3.78;;
59115;SDS011;53564;51.930;4.640;2022-09-09T11:52:24;12.32;;;3.58;;
59115;SDS011;53564;51.930;4.640;2022-09-09T11:55:07;12.98;;;3.90;;
59115;SDS011;53564;51.930;4.640;2022-09-09T11:57:38;11.27;;;3.50;;
59115;SDS011;53564;51.930;4.640;2022-09-09T12:00:04;9.93;;;3.15;;
59115;SDS011;53564;51.930;4.640;2022-09-09T12:02:30;10.25;;;3.70;;
59115;SDS011;53564;51.930;4.640;2022-09-09T12:05:01;10.80;;;3.55;;
59115;SDS011;53564;51.930;4.640;2022-09-09T12:07:48;10.95;;;3.20;;
59115;SDS011;53564;51.930;4.640;2022-09-09T12:10:20;10.80;;;3.60;;
59115;SDS011;53564;51.930;4.640;2022-09-09T12:12:47;9.95;;;3.13;;
59115;SDS011;53564;51.930;4.640;2022-09-09T12:17:47;7.20;;;2.90;;
59115;SDS011;53564;51.930;4.640;2022-09-09T12:26:10;11.43;;;3.30;;
59115;SDS011;53564;51.930;4.640;2022-09-09T12:28:50;11.52;;;3.08;;
59115;SDS011;53564;51.930;4.640;2022-09-09T12:34:35;10.85;;;3.15;;
59115;SDS011;53564;51.930;4.640;2022-09-09T12:40:06;8.68;;;2.15;;
59115;SDS011;53564;51.930;4.640;2022-09-09T12:42:32;11.70;;;2.95;;
59115;SDS011;53564;51.930;4.640;2022-09-09T12:45:02;11.10;;;3.50;;
59115;SDS011;53564;51.930;4.640;2022-09-09T12:47:44;7.32;;;2.50;;
59115;SDS011;53564;51.930;4.640;2022-09-09T12:50:22;7.93;;;2.50;;
59115;SDS011;53564;51.930;4.640;2022-09-09T12:52:51;7.88;;;2.50;;
59115;SDS011;53564;51.930;4.640;2022-09-09T12:55:24;7.95;;;2.40;;
59115;SDS011;53564;51.930;4.640;2022-09-09T12:57:53;9.85;;;2.78;;
59115;SDS011;53564;51.930;4.640;2022-09-09T13:00:20;13.80;;;2.90;;
59115;SDS011;53564;51.930;4.640;2022-09-09T13:02:49;11.25;;;2.72;;
59115;SDS011;53564;51.930;4.640;2022-09-09T13:05:19;10.23;;;2.92;;
59115;SDS011;53564;51.930;4.640;2022-09-09T13:07:49;9.63;;;2.67;;
59115;SDS011;53564;51.930;4.640;2022-09-09T13:10:20;7.10;;;2.42;;
59115;SDS011;53564;51.930;4.640;2022-09-09T13:12:49;11.00;;;2.63;;
59115;SDS011;53564;51.930;4.640;2022-09-09T13:15:22;8.90;;;2.92;;
59115;SDS011;53564;51.930;4.640;2022-09-09T13:17:58;10.13;;;2.90;;
59115;SDS011;53564;51.930;4.640;2022-09-09T13:20:26;7.15;;;2.42;;
59115;SDS011;53564;51.930;4.640;2022-09-09T13:22:52;10.65;;;2.85;;
59115;SDS011;53564;51.930;4.640;2022-09-09T13:25:29;9.30;;;2.70;;
59115;SDS011;53564;51.930;4.640;2022-09-09T13:27:58;7.97;;;2.58;;
59115;SDS011;53564;51.930;4.640;2022-09-09T13:30:33;9.70;;;3.13;;
59115;SDS011;53564;51.930;4.640;2022-09-09T13:35:34;8.50;;;2.42;;
59115;SDS011;53564;51.930;4.640;2022-09-09T13:38:09;12.20;;;2.85;;
59115;SDS011;53564;51.930;4.640;2022-09-09T13:40:35;10.98;;;2.60;;
59115;SDS011;53564;51.930;4.640;2022-09-09T13:43:01;7.63;;;2.50;;
59115;SDS011;53564;51.930;4.640;2022-09-09T13:45:28;7.57;;;2.50;;
59115;SDS011;53564;51.930;4.640;2022-09-09T13:47:54;8.10;;;2.28;;
59115;SDS011;53564;51.930;4.640;2022-09-09T13:50:24;6.50;;;2.13;;
59115;SDS011;53564;51.930;4.640;2022-09-09T13:52:53;9.23;;;2.33;;
59115;SDS011;53564;51.930;4.640;2022-09-09T13:55:21;6.88;;;2.10;;
59115;SDS011;53564;51.930;4.640;2022-09-09T13:57:52;10.65;;;2.75;;
59115;SDS011;53564;51.930;4.640;2022-09-09T14:00:31;7.68;;;2.10;;
59115;SDS011;53564;51.930;4.640;2022-09-09T14:02:58;8.13;;;2.63;;
59115;SDS011;53564;51.930;4.640;2022-09-09T14:05:27;7.18;;;2.35;;
59115;SDS011;53564;51.930;4.640;2022-09-09T14:07:54;8.10;;;2.10;;
59115;SDS011;53564;51.930;4.640;2022-09-09T14:10:20;9.95;;;2.20;;
59115;SDS011;53564;51.930;4.640;2022-09-09T14:12:46;7.82;;;2.10;;
59115;SDS011;53564;51.930;4.640;2022-09-09T14:15:11;8.75;;;2.40;;
59115;SDS011;53564;51.930;4.640;2022-09-09T14:17:37;4.00;;;1.80;;
59115;SDS011;53564;51.930;4.640;2022-09-09T14:20:04;11.30;;;2.30;;
59115;SDS011;53564;51.930;4.640;2022-09-09T14:22:33;9.02;;;2.25;;
59115;SDS011;53564;51.930;4.640;2022-09-09T14:24:59;7.60;;;2.40;;
59115;SDS011;53564;51.930;4.640;2022-09-09T14:27:24;7.38;;;2.30;;
59115;SDS011;53564;51.930;4.640;2022-09-09T14:29:51;5.03;;;2.53;;
59115;SDS011;53564;51.930;4.640;2022-09-09T14:32:17;10.00;;;2.70;;
59115;SDS011;53564;51.930;4.640;2022-09-09T14:34:42;6.32;;;2.10;;
59115;SDS011;53564;51.930;4.640;2022-09-09T14:37:07;6.68;;;2.35;;
59115;SDS011;53564;51.930;4.640;2022-09-09T14:39:32;6.45;;;2.28;;
59115;SDS011;53564;51.930;4.640;2022-09-09T14:41:58;6.95;;;2.15;;
59115;SDS011;53564;51.930;4.640;2022-09-09T14:44:23;5.50;;;2.15;;
59115;SDS011;53564;51.930;4.640;2022-09-09T14:46:48;7.78;;;2.25;;
59115;SDS011;53564;51.930;4.640;2022-09-09T14:49:16;6.65;;;2.00;;
59115;SDS011;53564;51.930;4.640;2022-09-09T14:51:41;7.82;;;2.22;;
59115;SDS011;53564;51.930;4.640;2022-09-09T14:54:07;6.43;;;1.90;;
59115;SDS011;53564;51.930;4.640;2022-09-09T14:56:32;5.22;;;1.90;;
59115;SDS011;53564;51.930;4.640;2022-09-09T14:59:01;4.55;;;1.90;;
59115;SDS011;53564;51.930;4.640;2022-09-09T15:01:27;5.47;;;1.92;;
59115;SDS011;53564;51.930;4.640;2022-09-09T15:04:01;3.50;;;1.80;;
59115;SDS011;53564;51.930;4.640;2022-09-09T15:06:30;3.58;;;1.90;;
59115;SDS011;53564;51.930;4.640;2022-09-09T15:08:58;7.00;;;2.08;;
59115;SDS011;53564;51.930;4.640;2022-09-09T15:11:25;5.55;;;2.05;;
59115;SDS011;53564;51.930;4.640;2022-09-09T15:13:52;6.80;;;1.90;;
59115;SDS011;53564;51.930;4.640;2022-09-09T15:16:19;6.80;;;2.10;;
59115;SDS011;53564;51.930;4.640;2022-09-09T15:18:46;3.67;;;1.67;;
59115;SDS011;53564;51.930;4.640;2022-09-09T15:21:12;11.20;;;2.30;;
59115;SDS011;53564;51.930;4.640;2022-09-09T15:23:44;7.60;;;1.98;;
59115;SDS011;53564;51.930;4.640;2022-09-09T15:26:10;7.10;;;2.03;;
59115;SDS011;53564;51.930;4.640;2022-09-09T15:28:36;5.82;;;1.85;;
59115;SDS011;53564;51.930;4.640;2022-09-09T15:31:13;11.30;;;2.75;;
59115;SDS011;53564;51.930;4.640;2022-09-09T15:33:46;10.88;;;2.50;;
59115;SDS011;53564;51.930;4.640;2022-09-09T15:36:16;12.90;;;2.70;;
59115;SDS011;53564;51.930;4.640;2022-09-09T15:38:43;8.23;;;2.15;;
59115;SDS011;53564;51.930;4.640;2022-09-09T15:41:09;9.10;;;2.53;;
59115;SDS011;53564;51.930;4.640;2022-09-09T15:43:35;7.88;;;2.75;;
59115;SDS011;53564;51.930;4.640;2022-09-09T15:46:05;9.55;;;2.83;;
59115;SDS011;53564;51.930;4.640;2022-09-09T15:48:51;10.07;;;2.78;;
59115;SDS011;53564;51.930;4.640;2022-09-09T15:51:16;12.32;;;4.10;;
59115;SDS011;53564;51.930;4.640;2022-09-09T15:53:43;10.85;;;3.05;;
59115;SDS011;53564;51.930;4.640;2022-09-09T15:56:09;11.18;;;3.13;;
59115;SDS011;53564;51.930;4.640;2022-09-09T15:58:35;8.85;;;3.10;;
59115;SDS011;53564;51.930;4.640;2022-09-09T16:01:09;14.45;;;3.42;;
59115;SDS011;53564;51.930;4.640;2022-09-09T16:06:04;10.52;;;3.22;;
59115;SDS011;53564;51.930;4.640;2022-09-09T16:08:33;9.63;;;3.20;;
59115;SDS011;53564;51.930;4.640;2022-09-09T16:11:09;7.10;;;2.50;;
59115;SDS011;53564;51.930;4.640;2022-09-09T16:13:40;7.55;;;2.50;;
59115;SDS011;53564;51.930;4.640;2022-09-09T16:16:06;14.02;;;4.00;;
59115;SDS011;53564;51.930;4.640;2022-09-09T16:18:46;11.07;;;3.10;;
59115;SDS011;53564;51.930;4.640;2022-09-09T16:21:23;10.60;;;3.85;;
59115;SDS011;53564;51.930;4.640;2022-09-09T16:23:50;11.82;;;3.15;;
59115;SDS011;53564;51.930;4.640;2022-09-09T16:26:18;11.02;;;2.83;;
59115;SDS011;53564;51.930;4.640;2022-09-09T16:28:44;11.00;;;3.00;;
59115;SDS011;53564;51.930;4.640;2022-09-09T16:31:12;7.60;;;2.42;;
59115;SDS011;53564;51.930;4.640;2022-09-09T16:33:39;9.68;;;2.70;;
59115;SDS011;53564;51.930;4.640;2022-09-09T16:36:06;10.98;;;2.90;;
59115;SDS011;53564;51.930;4.640;2022-09-09T16:38:32;9.90;;;3.00;;
59115;SDS011;53564;51.930;4.640;2022-09-09T16:40:59;9.00;;;2.55;;
59115;SDS011;53564;51.930;4.640;2022-09-09T16:43:25;9.38;;;3.00;;
59115;SDS011;53564;51.930;4.640;2022-09-09T16:45:50;11.23;;;2.60;;
59115;SDS011;53564;51.930;4.640;2022-09-09T16:48:15;12.35;;;2.88;;
59115;SDS011;53564;51.930;4.640;2022-09-09T16:50:41;8.55;;;2.50;;
59115;SDS011;53564;51.930;4.640;2022-09-09T16:53:06;13.02;;;2.65;;
59115;SDS011;53564;51.930;4.640;2022-09-09T16:55:37;9.68;;;2.92;;
59115;SDS011;53564;51.930;4.640;2022-09-09T16:58:05;10.73;;;3.20;;
59115;SDS011;53564;51.930;4.640;2022-09-09T17:00:31;9.63;;;2.80;;
59115;SDS011;53564;51.930;4.640;2022-09-09T17:02:57;12.15;;;3.25;;
59115;SDS011;53564;51.930;4.640;2022-09-09T17:05:22;7.10;;;2.47;;
59115;SDS011;53564;51.930;4.640;2022-09-09T17:07:48;11.02;;;3.47;;
59115;SDS011;53564;51.930;4.640;2022-09-09T17:10:13;8.15;;;2.60;;
59115;SDS011;53564;51.930;4.640;2022-09-09T17:12:38;12.10;;;3.10;;
59115;SDS011;53564;51.930;4.640;2022-09-09T17:15:05;8.75;;;2.80;;